Time;durP1;ratioP1;P1;durP2;ratioP2;P2;SDS_P1;SDS_P2;PMS_P1;PMS_P2;Temp;Humidity;BMP_temperature;BMP_pressure;BME280_temperature;BME280_humidity;BME280_pressure;Samples;Min_cycle;Max_cycle;Signal;HPM_P1;HPM_P2
2024/01/31 00:01:37;;;;;;;6.18;0.38;;;5.60;99.90;;;;;;5015084;28;20040;-75
2024/01/31 00:04:03;;;;;;;1.50;0.32;;;5.60;99.90;;;;;;5014323;28;20029;-72
2024/01/31 00:06:29;;;;;;;3.58;0.20;;;5.70;99.90;;;;;;5014068;28;20025;-72
2024/01/31 00:08:56;;;;;;;2.50;0.43;;;5.70;99.90;;;;;;5016264;28;20539;-72
2024/01/31 00:11:25;;;;;;;2.63;1.02;;;5.70;99.90;;;;;;5006527;28;20045;-73
2024/01/31 00:13:51;;;;;;;2.22;0.60;;;5.70;99.90;;;;;;5012016;28;20489;-72
2024/01/31 00:16:16;;;;;;;1.27;0.13;;;5.70;99.90;;;;;;5024060;28;20029;-72
2024/01/31 00:18:42;;;;;;;3.65;0.55;;;5.80;99.90;;;;;;5026162;28;20124;-73
2024/01/31 00:21:08;;;;;;;0.43;0.10;;;5.80;99.90;;;;;;5009818;28;20124;-73
2024/01/31 00:23:33;;;;;;;3.50;0.35;;;5.80;99.90;;;;;;5010469;28;20029;-71
2024/01/31 00:25:59;;;;;;;3.85;0.32;;;5.90;99.90;;;;;;5010589;28;20033;-73
2024/01/31 00:28:25;;;;;;;1.90;0.40;;;5.90;99.90;;;;;;5007755;28;20037;-73
2024/01/31 00:30:50;;;;;;;3.28;0.77;;;5.90;99.90;;;;;;4996309;28;20034;-74
2024/01/31 00:33:16;;;;;;;1.70;0.17;;;6.00;99.90;;;;;;5007084;28;20082;-73
2024/01/31 00:35:41;;;;;;;0.17;0.08;;;6.00;99.90;;;;;;5016741;28;20064;-73
2024/01/31 00:38:07;;;;;;;5.75;0.30;;;6.00;99.90;;;;;;5026299;28;20103;-73
2024/01/31 00:40:32;;;;;;;3.97;0.40;;;6.10;99.90;;;;;;5002503;28;20376;-74
2024/01/31 00:42:58;;;;;;;6.82;0.70;;;6.10;99.90;;;;;;5001490;28;20546;-72
2024/01/31 00:45:24;;;;;;;2.40;0.60;;;6.10;99.90;;;;;;5009287;28;20442;-71
2024/01/31 00:47:49;;;;;;;2.47;0.10;;;6.10;99.90;;;;;;5002920;28;20048;-73
2024/01/31 00:50:15;;;;;;;2.08;0.20;;;6.20;99.90;;;;;;5003156;28;20067;-72
2024/01/31 00:52:41;;;;;;;2.75;0.30;;;6.20;99.90;;;;;;5004090;28;20053;-73
2024/01/31 00:55:07;;;;;;;2.55;0.90;;;6.30;99.90;;;;;;4998366;28;20385;-72
2024/01/31 00:57:33;;;;;;;2.10;0.10;;;6.30;99.90;;;;;;5025747;28;20022;-71
2024/01/31 01:00:00;;;;;;;4.95;0.22;;;6.30;99.90;;;;;;5021646;28;20033;-72
2024/01/31 01:02:25;;;;;;;4.60;0.50;;;6.30;99.90;;;;;;5003118;28;20160;-72
2024/01/31 01:04:52;;;;;;;3.33;0.22;;;6.30;99.90;;;;;;5016631;28;20477;-73
2024/01/31 01:07:18;;;;;;;2.00;0.30;;;6.30;99.90;;;;;;4991548;28;20593;-73
2024/01/31 01:09:43;;;;;;;6.03;0.50;;;6.30;99.90;;;;;;5015377;28;20034;-72
2024/01/31 01:12:09;;;;;;;5.68;0.20;;;6.30;99.90;;;;;;4997094;28;20547;-73
2024/01/31 01:14:34;;;;;;;0.65;0.22;;;6.30;99.90;;;;;;5022441;28;20489;-75
2024/01/31 01:17:00;;;;;;;2.83;0.20;;;6.30;99.90;;;;;;5012256;28;20565;-72
2024/01/31 01:19:26;;;;;;;4.60;0.40;;;6.30;99.90;;;;;;4995214;28;20090;-74
2024/01/31 01:21:51;;;;;;;0.57;0.20;;;6.30;99.90;;;;;;5008947;28;20501;-73
2024/01/31 01:24:17;;;;;;;6.82;0.77;;;6.30;99.90;;;;;;4991034;28;20513;-74
2024/01/31 01:26:42;;;;;;;2.97;0.30;;;6.30;99.90;;;;;;5013510;28;20034;-72
2024/01/31 01:29:08;;;;;;;1.30;0.30;;;6.30;99.90;;;;;;4993571;28;20048;-72
2024/01/31 01:31:34;;;;;;;1.63;0.17;;;6.30;99.90;;;;;;5018304;28;20049;-72
2024/01/31 01:34:00;;;;;;;3.75;0.30;;;6.30;99.90;;;;;;5019389;28;20454;-72
2024/01/31 01:36:26;;;;;;;6.10;0.80;;;6.30;99.90;;;;;;5006533;28;20145;-72
2024/01/31 01:38:51;;;;;;;4.07;1.25;;;6.30;99.90;;;;;;5027654;28;20076;-74
2024/01/31 01:41:17;;;;;;;14.63;1.50;;;6.20;99.90;;;;;;5005608;28;20469;-72
2024/01/31 01:43:43;;;;;;;5.63;0.45;;;6.20;99.90;;;;;;5014419;28;20033;-73
2024/01/31 01:46:14;;;;;;;3.08;0.30;;;6.20;99.90;;;;;;5018665;28;20517;-72
2024/01/31 01:48:39;;;;;;;;;;;6.20;99.90;;;;;;5013148;28;20568;-72
2024/01/31 01:51:05;;;;;;;2.55;0.28;;;6.20;99.90;;;;;;5027525;28;19921;-72
2024/01/31 01:53:34;;;;;;;6.07;0.38;;;6.20;99.90;;;;;;5024774;28;20037;-73
2024/01/31 01:56:03;;;;;;;3.60;0.60;;;6.20;99.90;;;;;;5013218;28;20526;-72
2024/01/31 01:58:29;;;;;;;5.28;0.40;;;6.20;99.90;;;;;;5031899;28;20040;-75
2024/01/31 02:00:55;;;;;;;2.22;0.20;;;6.20;99.90;;;;;;5011686;28;20037;-73
2024/01/31 02:03:21;;;;;;;1.00;0.30;;;6.20;99.90;;;;;;5011356;28;20454;-72
2024/01/31 02:05:47;;;;;;;3.25;0.45;;;6.20;99.90;;;;;;5009549;28;20026;-74
2024/01/31 02:08:14;;;;;;;2.65;0.30;;;6.20;99.90;;;;;;5011775;28;20043;-73
2024/01/31 02:10:39;;;;;;;5.88;0.38;;;6.20;99.90;;;;;;5015184;28;20084;-73
2024/01/31 02:13:05;;;;;;;4.45;0.38;;;6.20;99.90;;;;;;4994914;28;20045;-73
2024/01/31 02:15:30;;;;;;;3.28;0.40;;;6.20;99.90;;;;;;4998936;28;20026;-73
2024/01/31 02:17:56;;;;;;;4.75;1.05;;;6.30;99.90;;;;;;5017085;28;20044;-73
2024/01/31 02:20:22;;;;;;;2.10;0.40;;;6.30;99.90;;;;;;5003757;28;20046;-73
2024/01/31 02:22:48;;;;;;;1.17;0.30;;;6.30;99.90;;;;;;5014780;28;20054;-73
2024/01/31 02:25:14;;;;;;;6.15;0.70;;;6.30;99.90;;;;;;5017803;28;20038;-74
2024/01/31 02:27:40;;;;;;;2.40;0.40;;;6.30;99.90;;;;;;5017077;28;20061;-73
2024/01/31 02:30:07;;;;;;;3.67;0.40;;;6.30;99.90;;;;;;5022851;28;20444;-73
2024/01/31 02:32:33;;;;;;;7.63;0.73;;;6.20;99.90;;;;;;5001976;28;20034;-72
2024/01/31 02:34:59;;;;;;;3.58;0.90;;;6.20;99.90;;;;;;4993449;28;20083;-72
2024/01/31 02:37:24;;;;;;;4.50;0.57;;;6.20;99.90;;;;;;4996419;28;20120;-72
2024/01/31 02:39:50;;;;;;;5.32;1.10;;;6.20;99.90;;;;;;4996373;28;20038;-72
2024/01/31 02:42:15;;;;;;;5.32;0.80;;;6.30;99.90;;;;;;5010155;28;20081;-73
2024/01/31 02:44:41;;;;;;;2.67;0.35;;;6.30;99.90;;;;;;5026311;28;20030;-72
2024/01/31 02:47:07;;;;;;;3.70;0.50;;;6.20;99.90;;;;;;5028504;28;20051;-72
2024/01/31 02:49:32;;;;;;;4.10;0.47;;;6.20;99.90;;;;;;4998053;28;20041;-73
2024/01/31 02:51:58;;;;;;;2.00;0.38;;;6.20;99.90;;;;;;4999966;28;20072;-73
2024/01/31 02:54:23;;;;;;;4.72;0.40;;;6.20;99.90;;;;;;4991251;28;20153;-73
2024/01/31 02:56:49;;;;;;;3.83;0.63;;;6.20;99.90;;;;;;5011844;28;20042;-73
2024/01/31 02:59:14;;;;;;;0.45;0.40;;;6.20;99.90;;;;;;5020112;28;20030;-72
2024/01/31 03:01:44;;;;;;;1.73;0.50;;;6.20;99.90;;;;;;5029494;28;20446;-74
2024/01/31 03:04:10;;;;;;;0.93;0.30;;;6.20;99.90;;;;;;5007726;28;20035;-72
2024/01/31 03:06:35;;;;;;;5.47;0.68;;;6.20;99.90;;;;;;5021450;28;20348;-73
2024/01/31 03:09:01;;;;;;;3.33;1.15;;;6.20;99.90;;;;;;5009473;28;20057;-72
2024/01/31 03:11:26;;;;;;;4.72;0.40;;;6.20;99.90;;;;;;5021005;28;20039;-74
2024/01/31 03:13:53;;;;;;;1.23;0.43;;;6.30;99.90;;;;;;5021567;28;20041;-74
2024/01/31 03:16:18;;;;;;;7.32;1.48;;;6.20;99.90;;;;;;5012082;28;20029;-73
2024/01/31 03:18:44;;;;;;;2.05;0.80;;;6.20;99.90;;;;;;5002442;28;20034;-73
2024/01/31 03:21:09;;;;;;;3.10;0.52;;;6.20;99.90;;;;;;4990831;28;20034;-73
2024/01/31 03:23:35;;;;;;;5.57;0.68;;;6.20;99.90;;;;;;5023554;28;20037;-73
2024/01/31 03:26:00;;;;;;;1.30;0.60;;;6.20;99.90;;;;;;5010667;28;20517;-72
2024/01/31 03:28:26;;;;;;;2.65;0.50;;;6.20;99.90;;;;;;5008578;28;20080;-72
2024/01/31 03:30:51;;;;;;;7.35;1.60;;;6.20;99.90;;;;;;5033999;28;20033;-73
2024/01/31 03:33:17;;;;;;;4.75;0.73;;;6.20;99.90;;;;;;5000904;28;20034;-71
2024/01/31 03:35:42;;;;;;;5.70;1.10;;;6.20;99.90;;;;;;5015745;28;20074;-73
2024/01/31 03:38:08;;;;;;;6.57;0.73;;;6.20;99.90;;;;;;5008461;28;20080;-74
2024/01/31 03:40:34;;;;;;;2.55;0.85;;;6.20;99.90;;;;;;4996318;28;20175;-73
2024/01/31 03:42:59;;;;;;;6.57;0.90;;;6.20;99.90;;;;;;5000245;28;20118;-73
2024/01/31 03:45:26;;;;;;;2.35;0.88;;;6.20;99.90;;;;;;4997951;28;20045;-73
2024/01/31 03:47:51;;;;;;;2.90;0.82;;;6.20;99.90;;;;;;5024728;28;20037;-73
2024/01/31 03:50:17;;;;;;;12.20;0.90;;;6.20;99.90;;;;;;5010989;28;20026;-73
2024/01/31 03:52:43;;;;;;;1.75;0.80;;;6.20;99.90;;;;;;5025653;28;20168;-73
2024/01/31 03:55:10;;;;;;;3.22;1.52;;;6.20;99.90;;;;;;4996504;28;20057;-72
2024/01/31 03:57:36;;;;;;;4.43;1.17;;;6.20;99.90;;;;;;5006981;28;20112;-72
2024/01/31 04:00:08;;;;;;;4.68;0.93;;;6.20;99.90;;;;;;5004322;28;20059;-73
2024/01/31 04:02:34;;;;;;;2.08;0.70;;;6.20;99.90;;;;;;4998962;28;20433;-73
2024/01/31 04:05:00;;;;;;;5.82;1.08;;;6.20;99.90;;;;;;4999027;28;20034;-72
2024/01/31 04:07:27;;;;;;;4.57;0.95;;;6.20;99.90;;;;;;5019820;28;20026;-73
2024/01/31 04:09:52;;;;;;;1.65;0.73;;;6.20;99.90;;;;;;5001210;28;20581;-74
2024/01/31 04:12:19;;;;;;;2.10;0.88;;;6.20;99.90;;;;;;5013853;28;20052;-72
2024/01/31 04:14:44;;;;;;;2.33;0.85;;;6.20;99.90;;;;;;4998060;28;20112;-73
2024/01/31 04:17:10;;;;;;;4.55;1.00;;;6.20;99.90;;;;;;5015004;28;20477;-73
2024/01/31 04:19:36;;;;;;;5.05;1.90;;;6.20;99.90;;;;;;5028542;28;20030;-72
2024/01/31 04:22:02;;;;;;;6.22;1.15;;;6.20;99.90;;;;;;5028510;28;20038;-72
2024/01/31 04:24:27;;;;;;;2.13;1.05;;;6.20;99.90;;;;;;5003304;28;20408;-72
2024/01/31 04:26:53;;;;;;;4.38;1.20;;;6.20;99.90;;;;;;4997672;28;20103;-72
2024/01/31 04:29:18;;;;;;;3.80;0.90;;;6.20;99.90;;;;;;5022199;28;20447;-73
2024/01/31 04:31:44;;;;;;;3.65;0.70;;;6.20;99.90;;;;;;4997221;28;20052;-72
2024/01/31 04:34:10;;;;;;;1.27;0.82;;;6.20;99.90;;;;;;5025654;28;20041;-73
2024/01/31 04:36:35;;;;;;;4.63;1.00;;;6.20;99.90;;;;;;4995622;28;20036;-75
2024/01/31 04:39:01;;;;;;;5.13;0.85;;;6.20;99.90;;;;;;5027642;28;20037;-74
2024/01/31 04:41:27;;;;;;;4.32;0.70;;;6.20;99.90;;;;;;5001389;28;20045;-73
2024/01/31 04:43:53;;;;;;;4.30;1.13;;;6.20;99.90;;;;;;5019904;28;20033;-74
2024/01/31 04:46:19;;;;;;;3.67;0.85;;;6.20;99.90;;;;;;5024566;28;20029;-71
2024/01/31 04:48:45;;;;;;;3.20;0.80;;;6.20;99.90;;;;;;5003716;28;20073;-73
2024/01/31 04:51:10;;;;;;;2.28;0.90;;;6.20;99.90;;;;;;5016534;28;20108;-74
2024/01/31 04:53:36;;;;;;;3.83;0.93;;;6.20;99.90;;;;;;5019487;28;20033;-73
2024/01/31 04:56:01;;;;;;;4.50;1.15;;;6.30;99.90;;;;;;4992003;28;20058;-72
2024/01/31 04:58:27;;;;;;;2.63;0.88;;;6.30;99.90;;;;;;5007038;28;20041;-73
2024/01/31 05:00:52;;;;;;;4.88;0.65;;;6.30;99.90;;;;;;5007093;28;20125;-72
2024/01/31 05:03:18;;;;;;;2.88;1.00;;;6.20;99.90;;;;;;5015297;28;20060;-74
2024/01/31 05:05:43;;;;;;;3.72;0.73;;;6.30;99.90;;;;;;4990959;28;20026;-73
2024/01/31 05:08:09;;;;;;;1.67;0.55;;;6.30;99.90;;;;;;4997790;28;20030;-72
2024/01/31 05:10:36;;;;;;;1.80;0.60;;;6.30;99.90;;;;;;5020155;28;20033;-73
2024/01/31 05:13:02;;;;;;;6.20;1.65;;;6.30;99.90;;;;;;5020897;28;20038;-72
2024/01/31 05:15:28;;;;;;;3.53;0.68;;;6.20;99.90;;;;;;5020008;28;20109;-73
2024/01/31 05:17:54;;;;;;;3.17;0.68;;;6.30;99.90;;;;;;5014546;28;20129;-72
2024/01/31 05:20:19;;;;;;;2.70;1.00;;;6.30;99.90;;;;;;5027655;28;20094;-72
2024/01/31 05:22:45;;;;;;;5.88;1.63;;;6.30;99.90;;;;;;5027945;28;20021;-72
2024/01/31 05:25:11;;;;;;;5.25;0.80;;;6.30;99.90;;;;;;5009332;28;20121;-74
2024/01/31 05:27:36;;;;;;;4.35;1.35;;;6.20;99.90;;;;;;5018800;28;20421;-72
2024/01/31 05:30:04;;;;;;;3.60;1.05;;;6.30;99.90;;;;;;5027361;28;20033;-75
2024/01/31 05:32:31;;;;;;;1.50;0.70;;;6.30;99.90;;;;;;5002592;28;20451;-73
2024/01/31 05:34:57;;;;;;;2.38;0.88;;;6.30;99.90;;;;;;5016105;28;20021;-71
2024/01/31 05:37:22;;;;;;;1.60;0.82;;;6.30;99.90;;;;;;5012787;28;20385;-73
2024/01/31 05:39:48;;;;;;;1.10;0.60;;;6.30;99.90;;;;;;5013513;28;20033;-72
2024/01/31 05:42:14;;;;;;;4.50;1.10;;;6.30;99.90;;;;;;5012436;28;20046;-73
2024/01/31 05:44:39;;;;;;;1.98;0.93;;;6.30;99.90;;;;;;5023406;28;20124;-75
2024/01/31 05:47:05;;;;;;;1.38;0.65;;;6.30;99.90;;;;;;5015408;28;20118;-74
2024/01/31 05:49:30;;;;;;;2.47;0.90;;;6.30;99.90;;;;;;5013771;28;20029;-72
2024/01/31 05:51:56;;;;;;;3.10;1.15;;;6.30;99.90;;;;;;5032951;28;20068;-74
2024/01/31 05:54:21;;;;;;;2.53;0.82;;;6.40;99.90;;;;;;5035395;28;20042;-74
2024/01/31 05:56:50;;;;;;;4.40;1.77;;;6.40;99.90;;;;;;5027365;28;20541;-73
2024/01/31 05:59:15;;;;;;;6.13;1.50;;;6.30;99.90;;;;;;5016081;28;20136;-74
2024/01/31 06:01:41;;;;;;;2.65;1.30;;;6.40;99.90;;;;;;5038359;28;20104;-75
2024/01/31 06:04:09;;;;;;;5.93;1.75;;;6.40;99.90;;;;;;5008131;28;20075;-76
2024/01/31 06:06:34;;;;;;;3.83;2.05;;;6.40;99.90;;;;;;5005156;28;20091;-73
2024/01/31 06:09:00;;;;;;;8.32;2.33;;;6.40;99.90;;;;;;5013685;28;20038;-72
2024/01/31 06:11:25;;;;;;;9.63;2.40;;;6.40;99.90;;;;;;5030795;28;20045;-74
2024/01/31 06:13:51;;;;;;;4.85;2.28;;;6.30;99.90;;;;;;5035670;28;20090;-72
2024/01/31 06:16:16;;;;;;;5.85;2.40;;;6.40;99.90;;;;;;5003139;28;20132;-74
2024/01/31 06:18:43;;;;;;;5.93;2.25;;;6.40;99.90;;;;;;5027787;28;20033;-74
2024/01/31 06:21:08;;;;;;;11.13;2.85;;;6.40;99.90;;;;;;5014177;28;20045;-74
2024/01/31 06:23:34;;;;;;;7.05;2.80;;;6.40;99.90;;;;;;5034135;28;20843;-73
2024/01/31 06:26:01;;;;;;;9.85;2.55;;;6.30;99.90;;;;;;5041103;28;20061;-72
2024/01/31 06:28:26;;;;;;;11.70;3.08;;;6.30;99.90;;;;;;5029999;28;20064;-73
2024/01/31 06:30:59;;;;;;;7.88;3.03;;;6.30;99.90;;;;;;5034699;28;20396;-73
2024/01/31 06:33:31;;;;;;;12.30;3.65;;;6.30;99.90;;;;;;5010075;28;20037;-75
2024/01/31 06:35:56;;;;;;;9.20;3.10;;;6.30;99.90;;;;;;5033399;28;20044;-74
2024/01/31 06:38:22;;;;;;;8.63;3.80;;;6.30;99.90;;;;;;5012496;28;20029;-73
2024/01/31 06:40:47;;;;;;;10.43;3.17;;;6.30;99.90;;;;;;5012849;28;20022;-73
2024/01/31 06:43:13;;;;;;;6.88;3.33;;;6.30;99.90;;;;;;5019568;28;20148;-75
2024/01/31 06:45:39;;;;;;;6.90;3.30;;;6.30;99.90;;;;;;5017858;28;20469;-72
2024/01/31 06:48:08;;;;;;;7.95;3.00;;;6.30;99.90;;;;;;5016573;28;20112;-73
2024/01/31 06:50:33;;;;;;;11.88;3.58;;;6.30;99.90;;;;;;5010624;28;20045;-74
2024/01/31 06:52:59;;;;;;;11.55;3.92;;;6.30;99.90;;;;;;5021391;28;20029;-72
2024/01/31 06:55:25;;;;;;;7.72;4.00;;;6.40;99.90;;;;;;5017017;28;20030;-73
2024/01/31 06:57:51;;;;;;;6.65;3.83;;;6.30;99.90;;;;;;5037878;28;20029;-73
2024/01/31 07:00:17;;;;;;;9.30;3.58;;;6.30;99.90;;;;;;5016813;28;20030;-73
2024/01/31 07:02:43;;;;;;;9.88;3.33;;;6.30;99.90;;;;;;5010415;28;20056;-75
2024/01/31 07:05:09;;;;;;;7.03;3.80;;;6.40;99.90;;;;;;5013802;28;20030;-73
2024/01/31 07:07:34;;;;;;;8.43;3.28;;;6.40;99.90;;;;;;5034793;28;20036;-79
2024/01/31 07:10:00;;;;;;;10.27;3.83;;;6.30;99.90;;;;;;5038075;28;20086;-72
2024/01/31 07:12:25;;;;;;;8.73;4.25;;;6.40;99.90;;;;;;5011683;28;20035;-73
2024/01/31 07:14:51;;;;;;;8.10;3.13;;;6.40;99.90;;;;;;5037906;28;20445;-73
2024/01/31 07:17:16;;;;;;;7.35;4.13;;;6.40;99.90;;;;;;5010366;28;20029;-74
2024/01/31 07:19:42;;;;;;;5.38;3.10;;;6.40;99.90;;;;;;5032680;28;20044;-72
2024/01/31 07:22:08;;;;;;;7.68;3.05;;;6.40;99.90;;;;;;5031465;28;20095;-72
2024/01/31 07:27:09;;;;;;;5.03;2.40;;;6.40;99.90;;;;;;5060334;22;20056;-75
2024/01/31 07:29:36;;;;;;;4.72;2.60;;;6.40;99.90;;;;;;5009246;28;20045;-77
2024/01/31 07:32:02;;;;;;;4.65;2.42;;;6.50;99.90;;;;;;5014439;28;20447;-75
2024/01/31 07:34:27;;;;;;;3.58;1.80;;;6.50;99.90;;;;;;4993411;28;20037;-75
2024/01/31 07:36:53;;;;;;;3.08;1.70;;;6.50;99.90;;;;;;5014097;28;20071;-75
2024/01/31 07:39:18;;;;;;;7.00;2.42;;;6.50;99.90;;;;;;4999802;28;20564;-73
2024/01/31 07:41:45;;;;;;;3.53;1.80;;;6.50;99.90;;;;;;5017789;28;20401;-74
2024/01/31 07:44:10;;;;;;;5.38;2.10;;;6.50;99.90;;;;;;4992861;28;20046;-74
2024/01/31 07:46:36;;;;;;;2.67;1.50;;;6.50;99.90;;;;;;5013017;28;20025;-76
2024/01/31 07:49:04;;;;;;;6.22;2.75;;;6.60;99.90;;;;;;5017200;28;20053;-74
2024/01/31 07:51:29;;;;;;;3.20;1.48;;;6.60;99.90;;;;;;5012740;28;20050;-75
2024/01/31 07:53:55;;;;;;;5.15;1.42;;;6.60;99.90;;;;;;5014770;28;20072;-76
2024/01/31 07:56:20;;;;;;;5.78;1.65;;;6.60;99.90;;;;;;5012817;28;20044;-75
2024/01/31 07:58:46;;;;;;;5.55;1.65;;;6.60;99.90;;;;;;5014670;28;20040;-74
2024/01/31 08:01:12;;;;;;;2.53;1.60;;;6.60;99.90;;;;;;5011613;28;20033;-75
2024/01/31 08:03:41;;;;;;;2.92;1.40;;;6.60;99.90;;;;;;5013233;28;20037;-73
2024/01/31 08:06:07;;;;;;;6.82;2.40;;;6.60;99.90;;;;;;5001713;28;20078;-76
2024/01/31 08:08:33;;;;;;;4.22;2.03;;;6.60;99.90;;;;;;5010609;28;20037;-74
2024/01/31 08:11:02;;;;;;;4.57;1.55;;;6.70;99.90;;;;;;4996936;28;20052;-75
2024/01/31 08:13:27;;;;;;;7.05;1.90;;;6.60;99.90;;;;;;5013645;28;20064;-75
2024/01/31 08:15:53;;;;;;;2.55;1.45;;;6.60;99.90;;;;;;5016068;28;20784;-75
2024/01/31 08:18:18;;;;;;;3.63;1.70;;;6.70;99.90;;;;;;5013077;28;20033;-76
2024/01/31 08:20:44;;;;;;;5.13;1.42;;;6.70;99.90;;;;;;5012421;28;20033;-74
2024/01/31 08:23:10;;;;;;;3.58;1.48;;;6.60;99.90;;;;;;5015175;28;20544;-74
2024/01/31 08:25:36;;;;;;;5.50;1.83;;;6.70;99.90;;;;;;5013345;28;20038;-74
2024/01/31 08:28:02;;;;;;;4.40;1.08;;;6.70;99.90;;;;;;4996682;28;20037;-76
2024/01/31 08:30:27;;;;;;;7.13;1.80;;;6.70;99.90;;;;;;5012908;28;20034;-74
2024/01/31 08:32:52;;;;;;;6.22;1.15;;;6.70;99.90;;;;;;5014644;28;20034;-75
2024/01/31 08:35:18;;;;;;;7.70;1.65;;;6.70;99.90;;;;;;4996184;28;20095;-74
2024/01/31 08:37:44;;;;;;;7.28;1.20;;;6.70;99.90;;;;;;5009144;28;20103;-76
2024/01/31 08:40:10;;;;;;;1.92;1.15;;;6.70;99.90;;;;;;5010349;28;20449;-76
2024/01/31 08:42:38;;;;;;;3.70;1.02;;;6.80;99.90;;;;;;5014663;28;20117;-74
2024/01/31 08:45:06;;;;;;;2.72;1.40;;;6.80;99.90;;;;;;4997600;28;20026;-75
2024/01/31 08:47:32;;;;;;;2.90;1.13;;;6.80;99.90;;;;;;4994992;28;20557;-75
2024/01/31 08:49:57;;;;;;;2.78;1.25;;;6.80;99.90;;;;;;5021292;28;20137;-76
2024/01/31 08:52:23;;;;;;;4.10;1.75;;;6.80;99.90;;;;;;5016735;28;20040;-76
2024/01/31 08:54:48;;;;;;;2.35;1.30;;;6.90;99.90;;;;;;5016456;28;20109;-75
2024/01/31 08:57:14;;;;;;;3.83;1.10;;;6.90;99.90;;;;;;5017607;28;20084;-74
2024/01/31 08:59:39;;;;;;;2.30;1.27;;;6.90;99.90;;;;;;5016167;28;20029;-74
2024/01/31 09:02:05;;;;;;;1.92;1.00;;;6.90;99.90;;;;;;5021541;28;20052;-75
2024/01/31 09:04:31;;;;;;;3.50;1.40;;;6.90;99.90;;;;;;4998166;28;20037;-76
2024/01/31 09:06:56;;;;;;;2.67;1.50;;;6.90;99.90;;;;;;5020795;28;20042;-75
2024/01/31 09:09:22;;;;;;;7.82;1.65;;;7.00;99.90;;;;;;5011289;28;20030;-75
2024/01/31 09:11:47;;;;;;;3.15;1.30;;;7.10;99.90;;;;;;5002166;28;20473;-75
2024/01/31 09:14:13;;;;;;;3.55;1.60;;;7.10;99.90;;;;;;5018971;28;20049;-74
2024/01/31 09:16:39;;;;;;;2.60;1.30;;;7.20;99.90;;;;;;5018679;28;20036;-75
2024/01/31 09:19:04;;;;;;;2.70;1.30;;;7.10;99.90;;;;;;5019254;28;20041;-76
2024/01/31 09:21:30;;;;;;;3.22;1.45;;;7.20;99.90;;;;;;5020625;28;20402;-74
2024/01/31 09:23:57;;;;;;;3.72;2.10;;;7.20;99.90;;;;;;5009785;28;20420;-75
2024/01/31 09:26:22;;;;;;;5.50;1.70;;;7.30;99.90;;;;;;5013834;28;20046;-75
2024/01/31 09:28:49;;;;;;;3.70;1.55;;;7.30;99.90;;;;;;4996137;28;20034;-74
2024/01/31 09:31:24;;;;;;;3.17;1.88;;;7.30;99.90;;;;;;4997348;28;20079;-75
2024/01/31 09:33:51;;;;;;;4.82;1.70;;;7.30;99.90;;;;;;5022026;28;20560;-75
2024/01/31 09:36:16;;;;;;;7.38;2.08;;;7.30;99.90;;;;;;4993000;28;20054;-75
2024/01/31 09:38:43;;;;;;;3.50;2.00;;;7.30;99.90;;;;;;5020435;28;20050;-75
2024/01/31 09:41:09;;;;;;;2.78;1.58;;;7.30;99.90;;;;;;4999085;28;20393;-75
2024/01/31 09:43:34;;;;;;;3.75;1.83;;;7.40;99.90;;;;;;5016134;28;20404;-74
2024/01/31 09:46:04;;;;;;;3.85;1.85;;;7.40;99.90;;;;;;5018114;28;20037;-76
2024/01/31 09:48:31;;;;;;;7.80;2.78;;;7.30;99.90;;;;;;5003839;28;20530;-74
2024/01/31 09:50:59;;;;;;;7.22;2.72;;;7.40;99.90;;;;;;5001480;28;20768;-77
2024/01/31 09:53:24;;;;;;;4.57;2.17;;;7.40;99.90;;;;;;5015695;28;20041;-76
2024/01/31 09:55:55;;;;;;;5.15;2.35;;;7.40;99.90;;;;;;5017592;28;20097;-74
2024/01/31 09:58:20;;;;;;;4.82;1.88;;;7.40;99.90;;;;;;5016026;28;20037;-73
2024/01/31 10:00:46;;;;;;;7.43;2.35;;;7.30;99.90;;;;;;4992209;28;20038;-76
2024/01/31 10:03:12;;;;;;;6.90;4.20;;;7.30;99.90;;;;;;5016042;28;20520;-76
2024/01/31 10:05:38;;;;;;;13.25;2.63;;;7.40;99.90;;;;;;5011082;28;20488;-75
2024/01/31 10:08:04;;;;;;;5.82;2.60;;;7.30;99.90;;;;;;5013711;28;20029;-76
2024/01/31 10:10:30;;;;;;;6.85;2.55;;;7.40;99.90;;;;;;5017412;28;20026;-77
2024/01/31 10:12:55;;;;;;;12.23;2.10;;;7.30;99.90;;;;;;5015316;28;20540;-77
2024/01/31 10:15:21;;;;;;;5.85;2.33;;;7.30;99.90;;;;;;4998282;28;20042;-74
2024/01/31 10:17:47;;;;;;;8.98;2.83;;;7.30;99.90;;;;;;5017993;28;20034;-74
2024/01/31 10:20:15;;;;;;;8.30;2.58;;;7.40;99.90;;;;;;5014895;28;20489;-76
2024/01/31 10:22:43;;;;;;;9.70;3.20;;;7.40;99.90;;;;;;5014946;28;20030;-74
2024/01/31 10:25:10;;;;;;;9.43;2.90;;;7.40;99.90;;;;;;5014882;28;20033;-75
2024/01/31 10:27:36;;;;;;;9.02;2.63;;;7.40;99.90;;;;;;5011132;28;20037;-75
2024/01/31 10:30:08;;;;;;;13.00;2.60;;;7.50;99.90;;;;;;5017318;28;20625;-75
2024/01/31 10:32:35;;;;;;;9.30;3.60;;;7.50;99.90;;;;;;5018947;28;20030;-74
2024/01/31 10:35:02;;;;;;;10.90;3.17;;;7.50;99.90;;;;;;4998802;28;20042;-74
2024/01/31 10:37:29;;;;;;;7.38;2.80;;;7.60;99.90;;;;;;5016875;28;20045;-75
2024/01/31 10:39:57;;;;;;;9.90;2.95;;;7.50;99.90;;;;;;4996507;28;20116;-74
2024/01/31 10:42:24;;;;;;;10.88;2.33;;;7.60;99.90;;;;;;5016207;28;20034;-74
2024/01/31 10:44:50;;;;;;;9.65;2.15;;;7.60;99.90;;;;;;5001723;28;20046;-75
2024/01/31 10:47:16;;;;;;;5.93;2.55;;;7.60;99.90;;;;;;5016754;28;20874;-74
2024/01/31 10:49:42;;;;;;;11.02;3.45;;;7.60;99.90;;;;;;5015519;28;20037;-75
2024/01/31 10:52:11;;;;;;;10.68;2.65;;;7.60;99.90;;;;;;5012699;28;20033;-76
2024/01/31 10:54:41;;;;;;;13.45;3.65;;;7.60;99.90;;;;;;5016215;28;20033;-75
2024/01/31 10:57:07;;;;;;;12.82;3.25;;;7.70;99.90;;;;;;5016613;28;20037;-74
2024/01/31 10:59:35;;;;;;;12.88;4.75;;;7.70;99.90;;;;;;5014386;28;20069;-75
2024/01/31 11:02:00;;;;;;;13.63;4.05;;;7.70;99.90;;;;;;5019226;28;20029;-76
2024/01/31 11:04:27;;;;;;;10.50;3.40;;;7.70;99.90;;;;;;5022011;28;20030;-74
2024/01/31 11:06:53;;;;;;;8.63;3.67;;;7.80;99.90;;;;;;5008365;28;20125;-74
2024/01/31 11:09:24;;;;;;;12.27;4.40;;;7.80;99.90;;;;;;5013504;28;20088;-75
2024/01/31 11:12:08;;;;;;;11.68;4.57;;;7.80;99.90;;;;;;5012338;28;20044;-73
2024/01/31 11:14:33;;;;;;;13.57;5.05;;;7.90;99.90;;;;;;5014521;28;20034;-73
2024/01/31 11:17:06;;;;;;;13.65;4.68;;;7.90;99.90;;;;;;5017935;28;20030;-73
2024/01/31 11:19:38;;;;;;;15.93;6.30;;;7.90;99.90;;;;;;5005708;28;20038;-73
2024/01/31 11:22:04;;;;;;;15.55;5.40;;;7.90;99.90;;;;;;5013629;28;20038;-75
2024/01/31 11:24:29;;;;;;;16.85;6.60;;;7.90;99.90;;;;;;5015092;28;20041;-74
2024/01/31 11:26:55;;;;;;;15.40;5.97;;;8.00;99.90;;;;;;4992971;28;20057;-74
2024/01/31 11:29:22;;;;;;;16.00;5.07;;;8.00;99.90;;;;;;5016881;28;20393;-74
2024/01/31 11:31:48;;;;;;;14.05;5.57;;;8.00;99.90;;;;;;5010695;28;20033;-75
2024/01/31 11:34:13;;;;;;;15.52;5.43;;;8.00;99.90;;;;;;5015912;28;20077;-75
2024/01/31 11:36:39;;;;;;;22.05;6.55;;;8.10;99.90;;;;;;5016467;28;20030;-75
2024/01/31 11:39:05;;;;;;;16.95;5.47;;;8.00;99.90;;;;;;5016610;28;20042;-74
2024/01/31 11:41:30;;;;;;;12.02;5.18;;;8.00;99.90;;;;;;5015267;28;20087;-75
2024/01/31 11:43:56;;;;;;;12.57;5.65;;;7.90;99.90;;;;;;5008230;28;20048;-76
2024/01/31 11:46:22;;;;;;;12.10;4.65;;;8.00;99.90;;;;;;4995953;28;20073;-74
2024/01/31 11:48:48;;;;;;;15.38;7.32;;;8.00;99.90;;;;;;5010661;28;20448;-75
2024/01/31 11:51:13;;;;;;;13.73;5.88;;;8.00;99.90;;;;;;4992908;28;20613;-75
2024/01/31 11:53:39;;;;;;;13.95;5.20;;;8.10;99.90;;;;;;5013702;28;20022;-75
2024/01/31 11:56:05;;;;;;;12.85;5.75;;;8.10;99.90;;;;;;4997083;28;20036;-76
2024/01/31 11:58:31;;;;;;;12.45;6.03;;;8.10;99.90;;;;;;4992449;28;20397;-75
2024/01/31 12:00:56;;;;;;;9.52;4.38;;;8.00;99.90;;;;;;5014912;28;20033;-74
2024/01/31 12:03:23;;;;;;;12.00;4.32;;;8.10;99.90;;;;;;4996709;28;20037;-74
2024/01/31 12:05:59;;;;;;;12.48;4.63;;;8.10;99.90;;;;;;5014779;28;20034;-75
2024/01/31 12:08:27;;;;;;;14.07;4.53;;;8.10;99.90;;;;;;5005886;28;20048;-76
2024/01/31 12:10:54;;;;;;;13.52;5.30;;;8.10;99.90;;;;;;4995665;28;20038;-75
2024/01/31 12:13:20;;;;;;;14.68;4.97;;;8.10;99.90;;;;;;5015669;28;20040;-74
2024/01/31 12:15:47;;;;;;;14.45;5.53;;;8.10;99.90;;;;;;4998003;28;20569;-74
2024/01/31 12:18:14;;;;;;;14.93;6.45;;;8.10;99.90;;;;;;4993555;28;20022;-76
2024/01/31 12:20:40;;;;;;;12.70;5.45;;;8.20;99.90;;;;;;5007943;28;20073;-74
2024/01/31 12:23:06;;;;;;;13.10;5.35;;;8.10;99.90;;;;;;5011160;28;20457;-77
2024/01/31 12:25:31;;;;;;;11.52;5.15;;;8.10;99.90;;;;;;4988295;28;20087;-75
2024/01/31 12:27:57;;;;;;;13.57;5.00;;;8.00;99.90;;;;;;4994444;28;20053;-74
2024/01/31 12:30:23;;;;;;;12.20;5.35;;;8.10;99.90;;;;;;5013165;28;20029;-75
2024/01/31 12:32:49;;;;;;;11.30;5.28;;;8.10;99.90;;;;;;5015370;28;20061;-75
2024/01/31 12:35:14;;;;;;;10.18;4.53;;;8.00;99.90;;;;;;5017437;28;20548;-75
2024/01/31 12:37:40;;;;;;;11.25;4.65;;;8.00;99.90;;;;;;4998800;28;20655;-74
2024/01/31 12:40:07;;;;;;;7.35;3.25;;;8.10;99.90;;;;;;4997393;28;20101;-75
2024/01/31 12:42:33;;;;;;;5.35;2.50;;;8.10;99.90;;;;;;4988509;28;20037;-74
2024/01/31 12:44:58;;;;;;;5.10;2.60;;;8.10;99.90;;;;;;5015095;28;20029;-75
2024/01/31 12:47:24;;;;;;;6.10;2.35;;;8.00;99.90;;;;;;5000963;28;20037;-75
2024/01/31 12:49:50;;;;;;;3.83;2.45;;;8.00;99.90;;;;;;5012549;28;20584;-75
2024/01/31 12:52:15;;;;;;;5.57;2.25;;;8.00;99.90;;;;;;4993483;28;20133;-75